Terminal Aerodrome Forecast
Issued by NWS Louisville, KY

Home | Current Version | Previous Version | Text Only | Print | Product List | Glossary On
Versions: 1 2 3 4 5 6 7 8 9 10 11 12 13 14 15 16 17 18 19 20 21 22 23 24
876
FTUS43 KLMK 200401 AAB
TAFSDF
TAF AMD
KSDF 200401Z 2004/2106 14003KT 2SM BR SCT250
     FM200800 11003KT 1SM BR SCT009
      TEMPO 2009/2013 3/4SM BR BKN007
     FM201400 13006KT P6SM BKN200=

USA.gov is the U.S. government's official web portal to all federal, state and local government web resources and services.